Aviation Digital Data Service (ADDS)

Output produced by METARs form (2317 UTC 15 February 2019)
found at http://www.aviationweather.gov/metar/data/
 
METAR text: TNCE 152255Z AUTO 17006KT 130V220 //// // ///////// 25/21 Q1016 RE//
Conditions at: TNCE (FDR ARPT/ORANJES, AN) observed 2255 UTC 15 February 2019
Temperature: 25.0°C (77°F)
Dewpoint: 21.0°C (70°F) [RH = 79%]
Pressure (altimeter): 30.00 inches Hg (1016.0 mb)
Winds: from the S (170 degrees) at 7 MPH (6 knots; 3.1 m/s)
Visibility: missing
Ceiling: unknown
Clouds: missing
Weather: no significant weather observed at this time

METAR text: TNCE 152155Z AUTO 11007KT 060V160 //// // ///////// 26/21 Q1016 RE//
Conditions at: TNCE (FDR ARPT/ORANJES, AN) observed 2155 UTC 15 February 2019
Temperature: 26.0°C (79°F)
Dewpoint: 21.0°C (70°F) [RH = 74%]
Pressure (altimeter): 30.00 inches Hg (1016.0 mb)
Winds: from the ESE (110 degrees) at 8 MPH (7 knots; 3.6 m/s)
Visibility: missing
Ceiling: unknown
Clouds: missing
Weather: no significant weather observed at this time

METAR text: TNCE 152055Z AUTO 11011KT 070V160 //// // ///////// 26/20 Q1015 RE//
Conditions at: TNCE (FDR ARPT/ORANJES, AN) observed 2055 UTC 15 February 2019
Temperature: 26.0°C (79°F)
Dewpoint: 20.0°C (68°F) [RH = 70%]
Pressure (altimeter): 29.97 inches Hg (1015.0 mb)
Winds: from the ESE (110 degrees) at 13 MPH (11 knots; 5.7 m/s)
Visibility: missing
Ceiling: unknown
Clouds: missing
Weather: no significant weather observed at this time

METAR text: TNCE 151955Z AUTO 09011KT 050V120 //// // ///////// 27/22 Q1015 RE//
Conditions at: TNCE (FDR ARPT/ORANJES, AN) observed 1955 UTC 15 February 2019
Temperature: 27.0°C (81°F)
Dewpoint: 22.0°C (72°F) [RH = 74%]
Pressure (altimeter): 29.97 inches Hg (1015.0 mb)
Winds: from the E (90 degrees) at 13 MPH (11 knots; 5.7 m/s)
Visibility: missing
Ceiling: unknown
Clouds: missing
Weather: no significant weather observed at this time

METAR text: TNCE 151855Z AUTO 09012KT 050V150 //// // ///////// 27/21 Q1015 RE//
Conditions at: TNCE (FDR ARPT/ORANJES, AN) observed 1855 UTC 15 February 2019
Temperature: 27.0°C (81°F)
Dewpoint: 21.0°C (70°F) [RH = 70%]
Pressure (altimeter): 29.97 inches Hg (1015.0 mb)
Winds: from the E (90 degrees) at 14 MPH (12 knots; 6.2 m/s)
Visibility: missing
Ceiling: unknown
Clouds: missing
Weather: no significant weather observed at this time

METAR text: TNCE 151755Z AUTO 10011G24KT 020V170 //// // ///////// 29/19 Q1016 RE//
Conditions at: TNCE (FDR ARPT/ORANJES, AN) observed 1755 UTC 15 February 2019
Temperature: 29.0°C (84°F)
Dewpoint: 19.0°C (66°F) [RH = 55%]
Pressure (altimeter): 30.00 inches Hg (1016.0 mb)
Winds: from the E (100 degrees) at 13 MPH (11 knots; 5.7 m/s)
gusting to 28 MPH (24 knots; 12.3 m/s)
Visibility: missing
Ceiling: unknown
Clouds: missing
Weather: no significant weather observed at this time

METAR text: TNCE 151655Z AUTO 11012G23KT 060V180 //// // ///////// 29/20 Q1017 RE//
Conditions at: TNCE (FDR ARPT/ORANJES, AN) observed 1655 UTC 15 February 2019
Temperature: 29.0°C (84°F)
Dewpoint: 20.0°C (68°F) [RH = 58%]
Pressure (altimeter): 30.03 inches Hg (1017.0 mb)
Winds: from the ESE (110 degrees) at 14 MPH (12 knots; 6.2 m/s)
gusting to 26 MPH (23 knots; 11.8 m/s)
Visibility: missing
Ceiling: unknown
Clouds: missing
Weather: no significant weather observed at this time

METAR text: TNCE 151555Z AUTO 10011KT 060V140 //// // ///////// 28/21 Q1018 RE//
Conditions at: TNCE (FDR ARPT/ORANJES, AN) observed 1555 UTC 15 February 2019
Temperature: 28.0°C (82°F)
Dewpoint: 21.0°C (70°F) [RH = 66%]
Pressure (altimeter): 30.06 inches Hg (1018.0 mb)
Winds: from the E (100 degrees) at 13 MPH (11 knots; 5.7 m/s)
Visibility: missing
Ceiling: unknown
Clouds: missing
Weather: no significant weather observed at this time

METAR text: TNCE 151455Z AUTO 10012KT 060V150 //// // ///////// 28/20 Q1018 RE//
Conditions at: TNCE (FDR ARPT/ORANJES, AN) observed 1455 UTC 15 February 2019
Temperature: 28.0°C (82°F)
Dewpoint: 20.0°C (68°F) [RH = 62%]
Pressure (altimeter): 30.06 inches Hg (1018.0 mb)
Winds: from the E (100 degrees) at 14 MPH (12 knots; 6.2 m/s)
Visibility: missing
Ceiling: unknown
Clouds: missing
Weather: no significant weather observed at this time

METAR text: TNCE 151355Z AUTO 12010KT 060V190 //// // ///////// 26/19 Q1018 RE//
Conditions at: TNCE (FDR ARPT/ORANJES, AN) observed 1355 UTC 15 February 2019
Temperature: 26.0°C (79°F)
Dewpoint: 19.0°C (66°F) [RH = 65%]
Pressure (altimeter): 30.06 inches Hg (1018.0 mb)
Winds: from the ESE (120 degrees) at 12 MPH (10 knots; 5.1 m/s)
Visibility: missing
Ceiling: unknown
Clouds: missing
Weather: no significant weather observed at this time

METAR text: TNCE 151255Z AUTO 12010KT 060V200 //// // ///////// 25/20 Q1018 RE//
Conditions at: TNCE (FDR ARPT/ORANJES, AN) observed 1255 UTC 15 February 2019
Temperature: 25.0°C (77°F)
Dewpoint: 20.0°C (68°F) [RH = 74%]
Pressure (altimeter): 30.06 inches Hg (1018.0 mb)
Winds: from the ESE (120 degrees) at 12 MPH (10 knots; 5.1 m/s)
Visibility: missing
Ceiling: unknown
Clouds: missing
Weather: no significant weather observed at this time

METAR text: TNCE 151155Z AUTO 11008KT 040V160 //// // ///////// 24/20 Q1017 RE//
Conditions at: TNCE (FDR ARPT/ORANJES, AN) observed 1155 UTC 15 February 2019
Temperature: 24.0°C (75°F)
Dewpoint: 20.0°C (68°F) [RH = 78%]
Pressure (altimeter): 30.03 inches Hg (1017.0 mb)
Winds: from the ESE (110 degrees) at 9 MPH (8 knots; 4.1 m/s)
Visibility: missing
Ceiling: unknown
Clouds: missing
Weather: no significant weather observed at this time

METAR text: TNCE 151055Z AUTO 11004KT 040V180 //// // ///////// 24/19 Q1016 RE//
Conditions at: TNCE (FDR ARPT/ORANJES, AN) observed 1055 UTC 15 February 2019
Temperature: 24.0°C (75°F)
Dewpoint: 19.0°C (66°F) [RH = 74%]
Pressure (altimeter): 30.00 inches Hg (1016.0 mb)
Winds: from the ESE (110 degrees) at 5 MPH (4 knots; 2.1 m/s)
Visibility: missing
Ceiling: unknown
Clouds: missing
Weather: no significant weather observed at this time

METAR text: TNCE 150955Z AUTO 13008KT 080V200 //// // ///////// 24/19 Q1016 RE//
Conditions at: TNCE (FDR ARPT/ORANJES, AN) observed 0955 UTC 15 February 2019
Temperature: 24.0°C (75°F)
Dewpoint: 19.0°C (66°F) [RH = 74%]
Pressure (altimeter): 30.00 inches Hg (1016.0 mb)
Winds: from the SE (130 degrees) at 9 MPH (8 knots; 4.1 m/s)
Visibility: missing
Ceiling: unknown
Clouds: missing
Weather: no significant weather observed at this time

METAR text: TNCE 150855Z AUTO 12008KT 060V180 //// // ///////// 24/18 Q1015 RE//
Conditions at: TNCE (FDR ARPT/ORANJES, AN) observed 0855 UTC 15 February 2019
Temperature: 24.0°C (75°F)
Dewpoint: 18.0°C (64°F) [RH = 69%]
Pressure (altimeter): 29.97 inches Hg (1015.0 mb)
Winds: from the ESE (120 degrees) at 9 MPH (8 knots; 4.1 m/s)
Visibility: missing
Ceiling: unknown
Clouds: missing
Weather: no significant weather observed at this time

METAR text: TNCE 150755Z AUTO 13009KT 050V190 //// // ///////// 24/20 Q1016 RE//
Conditions at: TNCE (FDR ARPT/ORANJES, AN) observed 0755 UTC 15 February 2019
Temperature: 24.0°C (75°F)
Dewpoint: 20.0°C (68°F) [RH = 78%]
Pressure (altimeter): 30.00 inches Hg (1016.0 mb)
Winds: from the SE (130 degrees) at 10 MPH (9 knots; 4.6 m/s)
Visibility: missing
Ceiling: unknown
Clouds: missing
Weather: no significant weather observed at this time

METAR text: TNCE 150655Z AUTO 13007KT 060V190 //// // ///////// 24/19 Q1016 RE//
Conditions at: TNCE (FDR ARPT/ORANJES, AN) observed 0655 UTC 15 February 2019
Temperature: 24.0°C (75°F)
Dewpoint: 19.0°C (66°F) [RH = 74%]
Pressure (altimeter): 30.00 inches Hg (1016.0 mb)
Winds: from the SE (130 degrees) at 8 MPH (7 knots; 3.6 m/s)
Visibility: missing
Ceiling: unknown
Clouds: missing
Weather: no significant weather observed at this time

METAR text: TNCE 150555Z AUTO 12007KT 050V200 //// // ///////// 25/19 Q1016 RE//
Conditions at: TNCE (FDR ARPT/ORANJES, AN) observed 0555 UTC 15 February 2019
Temperature: 25.0°C (77°F)
Dewpoint: 19.0°C (66°F) [RH = 69%]
Pressure (altimeter): 30.00 inches Hg (1016.0 mb)
Winds: from the ESE (120 degrees) at 8 MPH (7 knots; 3.6 m/s)
Visibility: missing
Ceiling: unknown
Clouds: missing
Weather: no significant weather observed at this time

METAR text: TNCE 150455Z AUTO 10005KT 040V160 //// // ///////// 25/20 Q1016 RE//
Conditions at: TNCE (FDR ARPT/ORANJES, AN) observed 0455 UTC 15 February 2019
Temperature: 25.0°C (77°F)
Dewpoint: 20.0°C (68°F) [RH = 74%]
Pressure (altimeter): 30.00 inches Hg (1016.0 mb)
Winds: from the E (100 degrees) at 6 MPH (5 knots; 2.6 m/s)
Visibility: missing
Ceiling: unknown
Clouds: missing
Weather: no significant weather observed at this time

METAR text: TNCE 150355Z AUTO 13004KT 080V240 //// // ///////// 24/19 Q1017 RE//
Conditions at: TNCE (FDR ARPT/ORANJES, AN) observed 0355 UTC 15 February 2019
Temperature: 24.0°C (75°F)
Dewpoint: 19.0°C (66°F) [RH = 74%]
Pressure (altimeter): 30.03 inches Hg (1017.0 mb)
Winds: from the SE (130 degrees) at 5 MPH (4 knots; 2.1 m/s)
Visibility: missing
Ceiling: unknown
Clouds: missing
Weather: no significant weather observed at this time

METAR text: TNCE 150255Z AUTO 12008KT 060V180 //// // ///////// 25/20 Q1017 RE//
Conditions at: TNCE (FDR ARPT/ORANJES, AN) observed 0255 UTC 15 February 2019
Temperature: 25.0°C (77°F)
Dewpoint: 20.0°C (68°F) [RH = 74%]
Pressure (altimeter): 30.03 inches Hg (1017.0 mb)
Winds: from the ESE (120 degrees) at 9 MPH (8 knots; 4.1 m/s)
Visibility: missing
Ceiling: unknown
Clouds: missing
Weather: no significant weather observed at this time

METAR text: TNCE 150155Z AUTO 13006KT 060V190 //// // ///////// 25/20 Q1017 RE//
Conditions at: TNCE (FDR ARPT/ORANJES, AN) observed 0155 UTC 15 February 2019
Temperature: 25.0°C (77°F)
Dewpoint: 20.0°C (68°F) [RH = 74%]
Pressure (altimeter): 30.03 inches Hg (1017.0 mb)
Winds: from the SE (130 degrees) at 7 MPH (6 knots; 3.1 m/s)
Visibility: missing
Ceiling: unknown
Clouds: missing
Weather: no significant weather observed at this time

METAR text: TNCE 150055Z AUTO 12008G18KT 060V190 //// // ///////// 25/20 Q1017 RE//
Conditions at: TNCE (FDR ARPT/ORANJES, AN) observed 0055 UTC 15 February 2019
Temperature: 25.0°C (77°F)
Dewpoint: 20.0°C (68°F) [RH = 74%]
Pressure (altimeter): 30.03 inches Hg (1017.0 mb)
Winds: from the ESE (120 degrees) at 9 MPH (8 knots; 4.1 m/s)
gusting to 21 MPH (18 knots; 9.3 m/s)
Visibility: missing
Ceiling: unknown
Clouds: missing
Weather: no significant weather observed at this time

METAR text: TNCE 142355Z AUTO 13009KT 060V190 //// // ///////// 25/20 Q1017 RE//
Conditions at: TNCE (FDR ARPT/ORANJES, AN) observed 2355 UTC 14 February 2019
Temperature: 25.0°C (77°F)
Dewpoint: 20.0°C (68°F) [RH = 74%]
Pressure (altimeter): 30.03 inches Hg (1017.0 mb)
Winds: from the SE (130 degrees) at 10 MPH (9 knots; 4.6 m/s)
Visibility: missing
Ceiling: unknown
Clouds: missing
Weather: no significant weather observed at this time

METAR text: TNCE 142255Z AUTO 13008G18KT 060V210 //// // ///////// 25/20 Q1016 RE//
Conditions at: TNCE (FDR ARPT/ORANJES, AN) observed 2255 UTC 14 February 2019
Temperature: 25.0°C (77°F)
Dewpoint: 20.0°C (68°F) [RH = 74%]
Pressure (altimeter): 30.00 inches Hg (1016.0 mb)
Winds: from the SE (130 degrees) at 9 MPH (8 knots; 4.1 m/s)
gusting to 21 MPH (18 knots; 9.3 m/s)
Visibility: missing
Ceiling: unknown
Clouds: missing
Weather: no significant weather observed at this time

METAR text: TNCE 142155Z AUTO 09009KT 030V130 //// // ///////// 26/22 Q1015 RE//
Conditions at: TNCE (FDR ARPT/ORANJES, AN) observed 2155 UTC 14 February 2019
Temperature: 26.0°C (79°F)
Dewpoint: 22.0°C (72°F) [RH = 79%]
Pressure (altimeter): 29.97 inches Hg (1015.0 mb)
Winds: from the E (90 degrees) at 10 MPH (9 knots; 4.6 m/s)
Visibility: missing
Ceiling: unknown
Clouds: missing
Weather: no significant weather observed at this time

METAR text: TNCE 142055Z AUTO 09011KT 050V130 //// // ///////// 27/22 Q1015 RE//
Conditions at: TNCE (FDR ARPT/ORANJES, AN) observed 2055 UTC 14 February 2019
Temperature: 27.0°C (81°F)
Dewpoint: 22.0°C (72°F) [RH = 74%]
Pressure (altimeter): 29.97 inches Hg (1015.0 mb)
Winds: from the E (90 degrees) at 13 MPH (11 knots; 5.7 m/s)
Visibility: missing
Ceiling: unknown
Clouds: missing
Weather: no significant weather observed at this time

METAR text: TNCE 141955Z AUTO 10011KT 040V140 //// // ///////// 27/21 Q1015 RE//
Conditions at: TNCE (FDR ARPT/ORANJES, AN) observed 1955 UTC 14 February 2019
Temperature: 27.0°C (81°F)
Dewpoint: 21.0°C (70°F) [RH = 70%]
Pressure (altimeter): 29.97 inches Hg (1015.0 mb)
Winds: from the E (100 degrees) at 13 MPH (11 knots; 5.7 m/s)
Visibility: missing
Ceiling: unknown
Clouds: missing
Weather: no significant weather observed at this time

METAR text: TNCE 141855Z AUTO 09013KT 050V130 //// // ///////// 28/21 Q1016 RE//
Conditions at: TNCE (FDR ARPT/ORANJES, AN) observed 1855 UTC 14 February 2019
Temperature: 28.0°C (82°F)
Dewpoint: 21.0°C (70°F) [RH = 66%]
Pressure (altimeter): 30.00 inches Hg (1016.0 mb)
Winds: from the E (90 degrees) at 15 MPH (13 knots; 6.7 m/s)
Visibility: missing
Ceiling: unknown
Clouds: missing
Weather: no significant weather observed at this time

METAR text: TNCE 141755Z AUTO 10014KT 060V130 //// // ///////// 28/21 Q1016 RE//
Conditions at: TNCE (FDR ARPT/ORANJES, AN) observed 1755 UTC 14 February 2019
Temperature: 28.0°C (82°F)
Dewpoint: 21.0°C (70°F) [RH = 66%]
Pressure (altimeter): 30.00 inches Hg (1016.0 mb)
Winds: from the E (100 degrees) at 16 MPH (14 knots; 7.2 m/s)
Visibility: missing
Ceiling: unknown
Clouds: missing
Weather: no significant weather observed at this time

METAR text: TNCE 141655Z AUTO 10014KT 050V140 //// // ///////// 29/21 Q1017 RE//
Conditions at: TNCE (FDR ARPT/ORANJES, AN) observed 1655 UTC 14 February 2019
Temperature: 29.0°C (84°F)
Dewpoint: 21.0°C (70°F) [RH = 62%]
Pressure (altimeter): 30.03 inches Hg (1017.0 mb)
Winds: from the E (100 degrees) at 16 MPH (14 knots; 7.2 m/s)
Visibility: missing
Ceiling: unknown
Clouds: missing
Weather: no significant weather observed at this time

METAR text: TNCE 141555Z AUTO 09013KT 050V130 //// // ///////// 27/21 Q1018 RE//
Conditions at: TNCE (FDR ARPT/ORANJES, AN) observed 1555 UTC 14 February 2019
Temperature: 27.0°C (81°F)
Dewpoint: 21.0°C (70°F) [RH = 70%]
Pressure (altimeter): 30.06 inches Hg (1018.0 mb)
Winds: from the E (90 degrees) at 15 MPH (13 knots; 6.7 m/s)
Visibility: missing
Ceiling: unknown
Clouds: missing
Weather: no significant weather observed at this time

METAR text: TNCE 141455Z AUTO 09013KT 050V130 //// // ///////// 28/22 Q1018 RE//
Conditions at: TNCE (FDR ARPT/ORANJES, AN) observed 1455 UTC 14 February 2019
Temperature: 28.0°C (82°F)
Dewpoint: 22.0°C (72°F) [RH = 70%]
Pressure (altimeter): 30.06 inches Hg (1018.0 mb)
Winds: from the E (90 degrees) at 15 MPH (13 knots; 6.7 m/s)
Visibility: missing
Ceiling: unknown
Clouds: missing
Weather: no significant weather observed at this time

METAR text: TNCE 141355Z AUTO 09012KT 050V130 //// // ///////// 27/21 Q1018 RE//
Conditions at: TNCE (FDR ARPT/ORANJES, AN) observed 1355 UTC 14 February 2019
Temperature: 27.0°C (81°F)
Dewpoint: 21.0°C (70°F) [RH = 70%]
Pressure (altimeter): 30.06 inches Hg (1018.0 mb)
Winds: from the E (90 degrees) at 14 MPH (12 knots; 6.2 m/s)
Visibility: missing
Ceiling: unknown
Clouds: missing
Weather: no significant weather observed at this time

METAR text: TNCE 141255Z AUTO 10012KT 050V140 //// // ///////// 27/21 Q1018 RE//
Conditions at: TNCE (FDR ARPT/ORANJES, AN) observed 1255 UTC 14 February 2019
Temperature: 27.0°C (81°F)
Dewpoint: 21.0°C (70°F) [RH = 70%]
Pressure (altimeter): 30.06 inches Hg (1018.0 mb)
Winds: from the E (100 degrees) at 14 MPH (12 knots; 6.2 m/s)
Visibility: missing
Ceiling: unknown
Clouds: missing
Weather: no significant weather observed at this time

METAR text: TNCE 141155Z AUTO 11008KT 040V180 //// // ///////// 25/20 Q1018 RE//
Conditions at: TNCE (FDR ARPT/ORANJES, AN) observed 1155 UTC 14 February 2019
Temperature: 25.0°C (77°F)
Dewpoint: 20.0°C (68°F) [RH = 74%]
Pressure (altimeter): 30.06 inches Hg (1018.0 mb)
Winds: from the ESE (110 degrees) at 9 MPH (8 knots; 4.1 m/s)
Visibility: missing
Ceiling: unknown
Clouds: missing
Weather: no significant weather observed at this time